sensor_id;sensor_type;location;lat;lon;timestamp;P1;durP1;ratioP1;P2;durP2;ratioP2
73733;SDS011;62039;50.000;9.064;2022-11-15T00:01:22;2.90;;;2.60;;
73733;SDS011;62039;50.000;9.064;2022-11-15T00:03:50;3.23;;;2.43;;
73733;SDS011;62039;50.000;9.064;2022-11-15T00:06:17;3.40;;;2.73;;
73733;SDS011;62039;50.000;9.064;2022-11-15T00:08:43;2.50;;;2.30;;
73733;SDS011;62039;50.000;9.064;2022-11-15T00:11:10;2.50;;;2.30;;
73733;SDS011;62039;50.000;9.064;2022-11-15T00:13:38;3.10;;;1.97;;
73733;SDS011;62039;50.000;9.064;2022-11-15T00:16:05;2.10;;;1.90;;
73733;SDS011;62039;50.000;9.064;2022-11-15T00:18:33;2.60;;;2.40;;
73733;SDS011;62039;50.000;9.064;2022-11-15T00:21:02;2.47;;;2.17;;
73733;SDS011;62039;50.000;9.064;2022-11-15T00:23:30;2.97;;;2.17;;
73733;SDS011;62039;50.000;9.064;2022-11-15T00:25:57;2.97;;;2.43;;
73733;SDS011;62039;50.000;9.064;2022-11-15T00:28:25;2.70;;;2.30;;
73733;SDS011;62039;50.000;9.064;2022-11-15T00:30:52;2.87;;;2.50;;
73733;SDS011;62039;50.000;9.064;2022-11-15T00:33:18;2.90;;;2.57;;
73733;SDS011;62039;50.000;9.064;2022-11-15T00:35:46;3.00;;;2.70;;
73733;SDS011;62039;50.000;9.064;2022-11-15T00:38:13;3.07;;;2.40;;
73733;SDS011;62039;50.000;9.064;2022-11-15T00:40:39;3.23;;;2.33;;
73733;SDS011;62039;50.000;9.064;2022-11-15T00:43:06;2.50;;;2.30;;
73733;SDS011;62039;50.000;9.064;2022-11-15T00:45:33;2.93;;;2.63;;
73733;SDS011;62039;50.000;9.064;2022-11-15T00:47:59;3.03;;;2.67;;
73733;SDS011;62039;50.000;9.064;2022-11-15T00:50:26;3.70;;;3.20;;
73733;SDS011;62039;50.000;9.064;2022-11-15T00:52:54;3.10;;;2.70;;
73733;SDS011;62039;50.000;9.064;2022-11-15T00:55:20;3.47;;;2.77;;
73733;SDS011;62039;50.000;9.064;2022-11-15T00:57:47;3.47;;;2.60;;
73733;SDS011;62039;50.000;9.064;2022-11-15T01:00:13;2.90;;;2.70;;
73733;SDS011;62039;50.000;9.064;2022-11-15T01:02:40;2.80;;;2.43;;
73733;SDS011;62039;50.000;9.064;2022-11-15T01:05:07;3.70;;;2.93;;
73733;SDS011;62039;50.000;9.064;2022-11-15T01:07:34;3.30;;;3.00;;
73733;SDS011;62039;50.000;9.064;2022-11-15T01:10:03;2.77;;;2.57;;
73733;SDS011;62039;50.000;9.064;2022-11-15T01:12:30;3.00;;;2.70;;
73733;SDS011;62039;50.000;9.064;2022-11-15T01:14:56;3.57;;;2.87;;
73733;SDS011;62039;50.000;9.064;2022-11-15T01:17:23;3.83;;;2.50;;
73733;SDS011;62039;50.000;9.064;2022-11-15T01:19:50;3.00;;;2.60;;
73733;SDS011;62039;50.000;9.064;2022-11-15T01:22:16;3.20;;;2.90;;
73733;SDS011;62039;50.000;9.064;2022-11-15T01:24:43;3.17;;;2.70;;
73733;SDS011;62039;50.000;9.064;2022-11-15T01:27:11;3.70;;;2.57;;
73733;SDS011;62039;50.000;9.064;2022-11-15T01:29:37;3.07;;;2.77;;
73733;SDS011;62039;50.000;9.064;2022-11-15T01:32:04;3.50;;;2.73;;
73733;SDS011;62039;50.000;9.064;2022-11-15T01:34:30;2.83;;;2.63;;
73733;SDS011;62039;50.000;9.064;2022-11-15T01:36:57;3.70;;;2.67;;
73733;SDS011;62039;50.000;9.064;2022-11-15T01:39:24;3.30;;;2.40;;
73733;SDS011;62039;50.000;9.064;2022-11-15T01:41:50;3.53;;;2.87;;
73733;SDS011;62039;50.000;9.064;2022-11-15T01:47:07;2.97;;;2.47;;
73733;SDS011;62039;50.000;9.064;2022-11-15T01:49:38;2.47;;;2.27;;
73733;SDS011;62039;50.000;9.064;2022-11-15T01:52:10;2.80;;;2.40;;
73733;SDS011;62039;50.000;9.064;2022-11-15T01:54:39;3.40;;;3.10;;
73733;SDS011;62039;50.000;9.064;2022-11-15T01:57:06;3.90;;;3.50;;
73733;SDS011;62039;50.000;9.064;2022-11-15T01:59:36;2.73;;;2.53;;
73733;SDS011;62039;50.000;9.064;2022-11-15T02:02:06;3.00;;;2.70;;
73733;SDS011;62039;50.000;9.064;2022-11-15T02:04:34;3.17;;;2.70;;
73733;SDS011;62039;50.000;9.064;2022-11-15T02:07:04;4.17;;;3.30;;
73733;SDS011;62039;50.000;9.064;2022-11-15T02:09:32;3.23;;;2.77;;
73733;SDS011;62039;50.000;9.064;2022-11-15T02:11:59;2.93;;;2.50;;
73733;SDS011;62039;50.000;9.064;2022-11-15T02:14:26;2.50;;;2.30;;
73733;SDS011;62039;50.000;9.064;2022-11-15T02:16:57;3.03;;;2.80;;
73733;SDS011;62039;50.000;9.064;2022-11-15T02:19:40;2.50;;;2.30;;
73733;SDS011;62039;50.000;9.064;2022-11-15T02:22:32;2.27;;;2.07;;
73733;SDS011;62039;50.000;9.064;2022-11-15T02:25:11;3.63;;;2.93;;
73733;SDS011;62039;50.000;9.064;2022-11-15T02:28:04;3.37;;;2.67;;
73733;SDS011;62039;50.000;9.064;2022-11-15T02:30:44;3.23;;;2.20;;
73733;SDS011;62039;50.000;9.064;2022-11-15T02:33:16;2.63;;;2.20;;
73733;SDS011;62039;50.000;9.064;2022-11-15T02:35:52;2.37;;;2.00;;
73733;SDS011;62039;50.000;9.064;2022-11-15T02:38:26;2.23;;;2.03;;
73733;SDS011;62039;50.000;9.064;2022-11-15T02:40:59;2.60;;;2.40;;
73733;SDS011;62039;50.000;9.064;2022-11-15T02:43:29;2.50;;;2.30;;
73733;SDS011;62039;50.000;9.064;2022-11-15T02:46:03;2.27;;;2.07;;
73733;SDS011;62039;50.000;9.064;2022-11-15T02:48:36;3.23;;;2.80;;
73733;SDS011;62039;50.000;9.064;2022-11-15T02:51:03;2.63;;;2.40;;
73733;SDS011;62039;50.000;9.064;2022-11-15T02:53:30;2.40;;;2.20;;
73733;SDS011;62039;50.000;9.064;2022-11-15T02:55:57;2.60;;;2.40;;
73733;SDS011;62039;50.000;9.064;2022-11-15T03:01:24;2.70;;;2.50;;
73733;SDS011;62039;50.000;9.064;2022-11-15T03:04:02;2.83;;;2.50;;
73733;SDS011;62039;50.000;9.064;2022-11-15T03:06:35;2.97;;;2.67;;
73733;SDS011;62039;50.000;9.064;2022-11-15T03:09:07;2.77;;;2.37;;
73733;SDS011;62039;50.000;9.064;2022-11-15T03:11:38;2.63;;;2.20;;
73733;SDS011;62039;50.000;9.064;2022-11-15T03:14:12;2.57;;;2.17;;
73733;SDS011;62039;50.000;9.064;2022-11-15T03:16:49;2.37;;;2.07;;
73733;SDS011;62039;50.000;9.064;2022-11-15T03:19:22;2.37;;;2.10;;
73733;SDS011;62039;50.000;9.064;2022-11-15T03:21:56;2.23;;;2.03;;
73733;SDS011;62039;50.000;9.064;2022-11-15T03:24:26;3.70;;;2.40;;
73733;SDS011;62039;50.000;9.064;2022-11-15T03:26:56;2.73;;;2.53;;
73733;SDS011;62039;50.000;9.064;2022-11-15T03:29:27;4.07;;;2.50;;
73733;SDS011;62039;50.000;9.064;2022-11-15T03:32:00;3.20;;;2.63;;
73733;SDS011;62039;50.000;9.064;2022-11-15T03:34:31;2.87;;;2.50;;
73733;SDS011;62039;50.000;9.064;2022-11-15T03:37:01;2.70;;;2.50;;
73733;SDS011;62039;50.000;9.064;2022-11-15T03:39:27;3.67;;;2.60;;
73733;SDS011;62039;50.000;9.064;2022-11-15T03:41:57;2.57;;;2.30;;
73733;SDS011;62039;50.000;9.064;2022-11-15T03:44:35;2.83;;;2.40;;
73733;SDS011;62039;50.000;9.064;2022-11-15T03:47:08;2.63;;;2.43;;
73733;SDS011;62039;50.000;9.064;2022-11-15T03:49:39;3.13;;;2.70;;
73733;SDS011;62039;50.000;9.064;2022-11-15T03:52:11;3.03;;;2.60;;
73733;SDS011;62039;50.000;9.064;2022-11-15T03:54:47;3.03;;;2.57;;
73733;SDS011;62039;50.000;9.064;2022-11-15T03:57:14;3.00;;;2.70;;
73733;SDS011;62039;50.000;9.064;2022-11-15T03:59:41;3.37;;;2.47;;
73733;SDS011;62039;50.000;9.064;2022-11-15T04:02:09;3.50;;;2.60;;
73733;SDS011;62039;50.000;9.064;2022-11-15T04:04:36;3.00;;;2.47;;
73733;SDS011;62039;50.000;9.064;2022-11-15T04:07:03;2.70;;;2.37;;
73733;SDS011;62039;50.000;9.064;2022-11-15T04:09:29;2.23;;;2.03;;
73733;SDS011;62039;50.000;9.064;2022-11-15T04:11:56;3.40;;;2.83;;
73733;SDS011;62039;50.000;9.064;2022-11-15T04:14:23;3.20;;;2.83;;
73733;SDS011;62039;50.000;9.064;2022-11-15T04:16:49;3.70;;;2.70;;
73733;SDS011;62039;50.000;9.064;2022-11-15T04:19:17;3.47;;;2.83;;
73733;SDS011;62039;50.000;9.064;2022-11-15T04:21:44;2.63;;;2.37;;
73733;SDS011;62039;50.000;9.064;2022-11-15T04:24:10;3.03;;;2.20;;
73733;SDS011;62039;50.000;9.064;2022-11-15T04:26:37;2.53;;;2.30;;
73733;SDS011;62039;50.000;9.064;2022-11-15T04:29:03;3.27;;;2.87;;
73733;SDS011;62039;50.000;9.064;2022-11-15T04:31:30;3.67;;;2.50;;
73733;SDS011;62039;50.000;9.064;2022-11-15T04:33:56;4.77;;;2.73;;
73733;SDS011;62039;50.000;9.064;2022-11-15T04:36:24;2.93;;;2.63;;
73733;SDS011;62039;50.000;9.064;2022-11-15T04:38:51;2.93;;;2.50;;
73733;SDS011;62039;50.000;9.064;2022-11-15T04:41:18;2.67;;;2.47;;
73733;SDS011;62039;50.000;9.064;2022-11-15T04:43:44;2.60;;;2.33;;
73733;SDS011;62039;50.000;9.064;2022-11-15T04:46:11;3.23;;;2.47;;
73733;SDS011;62039;50.000;9.064;2022-11-15T04:48:37;3.17;;;2.53;;
73733;SDS011;62039;50.000;9.064;2022-11-15T04:51:04;2.93;;;2.63;;
73733;SDS011;62039;50.000;9.064;2022-11-15T04:53:32;2.87;;;2.57;;
73733;SDS011;62039;50.000;9.064;2022-11-15T04:55:59;2.53;;;2.33;;
73733;SDS011;62039;50.000;9.064;2022-11-15T04:58:26;4.50;;;2.90;;
73733;SDS011;62039;50.000;9.064;2022-11-15T05:00:52;4.87;;;3.23;;
73733;SDS011;62039;50.000;9.064;2022-11-15T05:03:19;3.73;;;3.00;;
73733;SDS011;62039;50.000;9.064;2022-11-15T05:05:45;3.47;;;2.10;;
73733;SDS011;62039;50.000;9.064;2022-11-15T05:08:12;3.10;;;2.47;;
73733;SDS011;62039;50.000;9.064;2022-11-15T05:10:40;3.13;;;2.47;;
73733;SDS011;62039;50.000;9.064;2022-11-15T05:13:06;2.60;;;2.40;;
73733;SDS011;62039;50.000;9.064;2022-11-15T05:15:33;2.33;;;2.13;;
73733;SDS011;62039;50.000;9.064;2022-11-15T05:17:59;5.17;;;2.47;;
73733;SDS011;62039;50.000;9.064;2022-11-15T05:20:26;3.00;;;2.70;;
73733;SDS011;62039;50.000;9.064;2022-11-15T05:22:53;2.57;;;2.27;;
73733;SDS011;62039;50.000;9.064;2022-11-15T05:25:20;5.80;;;2.67;;
73733;SDS011;62039;50.000;9.064;2022-11-15T05:27:48;5.30;;;2.80;;
73733;SDS011;62039;50.000;9.064;2022-11-15T05:30:15;3.37;;;2.40;;
73733;SDS011;62039;50.000;9.064;2022-11-15T05:32:42;2.30;;;2.10;;
73733;SDS011;62039;50.000;9.064;2022-11-15T05:35:09;2.90;;;2.60;;
73733;SDS011;62039;50.000;9.064;2022-11-15T05:37:41;3.40;;;2.53;;
73733;SDS011;62039;50.000;9.064;2022-11-15T05:40:08;3.40;;;2.17;;
73733;SDS011;62039;50.000;9.064;2022-11-15T05:42:35;4.30;;;2.30;;
73733;SDS011;62039;50.000;9.064;2022-11-15T05:45:03;3.37;;;2.70;;
73733;SDS011;62039;50.000;9.064;2022-11-15T05:47:32;3.10;;;2.53;;
73733;SDS011;62039;50.000;9.064;2022-11-15T05:50:01;3.00;;;2.67;;
73733;SDS011;62039;50.000;9.064;2022-11-15T05:52:29;3.30;;;3.00;;
73733;SDS011;62039;50.000;9.064;2022-11-15T05:55:00;3.23;;;2.63;;
73733;SDS011;62039;50.000;9.064;2022-11-15T05:57:28;2.67;;;2.47;;
73733;SDS011;62039;50.000;9.064;2022-11-15T05:59:55;3.37;;;2.80;;
73733;SDS011;62039;50.000;9.064;2022-11-15T06:02:23;2.60;;;2.40;;
73733;SDS011;62039;50.000;9.064;2022-11-15T06:04:49;2.60;;;2.40;;
73733;SDS011;62039;50.000;9.064;2022-11-15T06:07:16;2.87;;;2.67;;
73733;SDS011;62039;50.000;9.064;2022-11-15T06:09:43;2.70;;;2.50;;
73733;SDS011;62039;50.000;9.064;2022-11-15T06:12:09;2.63;;;2.43;;
73733;SDS011;62039;50.000;9.064;2022-11-15T06:14:36;2.80;;;2.60;;
73733;SDS011;62039;50.000;9.064;2022-11-15T06:17:02;3.17;;;2.60;;
73733;SDS011;62039;50.000;9.064;2022-11-15T06:19:37;3.50;;;2.63;;
73733;SDS011;62039;50.000;9.064;2022-11-15T06:22:04;4.90;;;3.00;;
73733;SDS011;62039;50.000;9.064;2022-11-15T06:24:30;4.83;;;3.57;;
73733;SDS011;62039;50.000;9.064;2022-11-15T06:26:57;5.97;;;5.10;;
73733;SDS011;62039;50.000;9.064;2022-11-15T06:29:23;4.93;;;4.30;;
73733;SDS011;62039;50.000;9.064;2022-11-15T06:31:50;6.27;;;4.90;;
73733;SDS011;62039;50.000;9.064;2022-11-15T06:34:16;5.47;;;4.83;;
73733;SDS011;62039;50.000;9.064;2022-11-15T06:36:44;6.17;;;4.23;;
73733;SDS011;62039;50.000;9.064;2022-11-15T06:39:11;5.83;;;3.90;;
73733;SDS011;62039;50.000;9.064;2022-11-15T06:41:38;4.40;;;2.87;;
73733;SDS011;62039;50.000;9.064;2022-11-15T06:44:04;2.70;;;2.50;;
73733;SDS011;62039;50.000;9.064;2022-11-15T06:46:31;3.40;;;2.80;;
73733;SDS011;62039;50.000;9.064;2022-11-15T06:48:57;4.00;;;2.90;;
73733;SDS011;62039;50.000;9.064;2022-11-15T06:51:24;7.67;;;3.40;;
73733;SDS011;62039;50.000;9.064;2022-11-15T06:53:52;4.63;;;2.50;;
73733;SDS011;62039;50.000;9.064;2022-11-15T06:56:18;3.80;;;2.80;;
73733;SDS011;62039;50.000;9.064;2022-11-15T06:58:45;4.00;;;3.20;;
73733;SDS011;62039;50.000;9.064;2022-11-15T07:01:11;4.57;;;3.53;;
73733;SDS011;62039;50.000;9.064;2022-11-15T07:03:39;6.57;;;3.80;;
73733;SDS011;62039;50.000;9.064;2022-11-15T07:06:07;6.07;;;4.53;;
73733;SDS011;62039;50.000;9.064;2022-11-15T07:08:35;4.43;;;3.90;;
73733;SDS011;62039;50.000;9.064;2022-11-15T07:11:04;4.17;;;3.50;;
73733;SDS011;62039;50.000;9.064;2022-11-15T07:13:33;4.43;;;3.57;;
73733;SDS011;62039;50.000;9.064;2022-11-15T07:16:01;4.53;;;3.47;;
73733;SDS011;62039;50.000;9.064;2022-11-15T07:18:28;3.93;;;3.10;;
73733;SDS011;62039;50.000;9.064;2022-11-15T07:20:55;5.00;;;3.17;;
73733;SDS011;62039;50.000;9.064;2022-11-15T07:23:26;3.83;;;3.20;;
73733;SDS011;62039;50.000;9.064;2022-11-15T07:25:52;5.17;;;3.87;;
73733;SDS011;62039;50.000;9.064;2022-11-15T07:28:20;4.93;;;3.97;;
73733;SDS011;62039;50.000;9.064;2022-11-15T07:30:47;4.40;;;3.43;;
73733;SDS011;62039;50.000;9.064;2022-11-15T07:33:13;6.07;;;4.10;;
73733;SDS011;62039;50.000;9.064;2022-11-15T07:35:40;5.83;;;3.63;;
73733;SDS011;62039;50.000;9.064;2022-11-15T07:38:06;5.17;;;3.50;;
73733;SDS011;62039;50.000;9.064;2022-11-15T07:40:33;4.03;;;3.57;;
73733;SDS011;62039;50.000;9.064;2022-11-15T07:43:00;3.87;;;3.40;;
73733;SDS011;62039;50.000;9.064;2022-11-15T07:45:28;4.87;;;3.93;;
73733;SDS011;62039;50.000;9.064;2022-11-15T07:47:55;4.60;;;3.83;;
73733;SDS011;62039;50.000;9.064;2022-11-15T07:50:22;4.80;;;3.83;;
73733;SDS011;62039;50.000;9.064;2022-11-15T07:52:53;6.93;;;4.07;;
73733;SDS011;62039;50.000;9.064;2022-11-15T07:55:20;4.50;;;4.10;;
73733;SDS011;62039;50.000;9.064;2022-11-15T07:57:46;3.50;;;2.93;;
73733;SDS011;62039;50.000;9.064;2022-11-15T08:00:13;5.13;;;3.67;;
73733;SDS011;62039;50.000;9.064;2022-11-15T08:02:42;6.03;;;4.10;;
73733;SDS011;62039;50.000;9.064;2022-11-15T08:05:09;4.83;;;4.07;;
73733;SDS011;62039;50.000;9.064;2022-11-15T08:07:35;8.70;;;3.67;;
73733;SDS011;62039;50.000;9.064;2022-11-15T08:10:02;3.90;;;3.30;;
73733;SDS011;62039;50.000;9.064;2022-11-15T08:12:29;4.13;;;3.60;;
73733;SDS011;62039;50.000;9.064;2022-11-15T08:14:56;4.97;;;4.23;;
73733;SDS011;62039;50.000;9.064;2022-11-15T08:17:22;6.57;;;3.90;;
73733;SDS011;62039;50.000;9.064;2022-11-15T08:19:50;3.70;;;3.20;;
73733;SDS011;62039;50.000;9.064;2022-11-15T08:22:17;4.10;;;3.70;;
73733;SDS011;62039;50.000;9.064;2022-11-15T08:24:44;4.03;;;3.47;;
73733;SDS011;62039;50.000;9.064;2022-11-15T08:27:10;4.93;;;3.60;;
73733;SDS011;62039;50.000;9.064;2022-11-15T08:29:37;5.60;;;3.80;;
73733;SDS011;62039;50.000;9.064;2022-11-15T08:32:04;4.70;;;3.80;;
73733;SDS011;62039;50.000;9.064;2022-11-15T08:34:30;6.73;;;3.50;;
73733;SDS011;62039;50.000;9.064;2022-11-15T08:36:58;5.67;;;3.80;;
73733;SDS011;62039;50.000;9.064;2022-11-15T08:39:25;4.53;;;3.60;;
73733;SDS011;62039;50.000;9.064;2022-11-15T08:41:51;8.20;;;3.83;;
73733;SDS011;62039;50.000;9.064;2022-11-15T08:44:18;6.63;;;4.27;;
73733;SDS011;62039;50.000;9.064;2022-11-15T08:46:45;5.97;;;3.67;;
73733;SDS011;62039;50.000;9.064;2022-11-15T08:49:11;4.57;;;3.60;;
73733;SDS011;62039;50.000;9.064;2022-11-15T08:51:38;4.37;;;3.43;;
73733;SDS011;62039;50.000;9.064;2022-11-15T08:54:06;5.10;;;3.80;;
73733;SDS011;62039;50.000;9.064;2022-11-15T08:56:33;4.00;;;3.10;;
73733;SDS011;62039;50.000;9.064;2022-11-15T08:58:59;3.53;;;2.63;;
73733;SDS011;62039;50.000;9.064;2022-11-15T09:01:26;3.10;;;2.50;;
73733;SDS011;62039;50.000;9.064;2022-11-15T09:03:52;3.67;;;2.57;;
73733;SDS011;62039;50.000;9.064;2022-11-15T09:06:19;3.30;;;2.87;;
73733;SDS011;62039;50.000;9.064;2022-11-15T09:08:45;2.60;;;2.33;;
73733;SDS011;62039;50.000;9.064;2022-11-15T09:11:15;4.17;;;2.80;;
73733;SDS011;62039;50.000;9.064;2022-11-15T09:13:41;4.20;;;2.93;;
73733;SDS011;62039;50.000;9.064;2022-11-15T09:16:08;3.10;;;2.43;;
73733;SDS011;62039;50.000;9.064;2022-11-15T09:18:35;4.17;;;2.90;;
73733;SDS011;62039;50.000;9.064;2022-11-15T09:21:01;3.47;;;2.80;;
73733;SDS011;62039;50.000;9.064;2022-11-15T09:23:28;3.27;;;2.80;;
73733;SDS011;62039;50.000;9.064;2022-11-15T09:25:58;3.80;;;2.40;;
73733;SDS011;62039;50.000;9.064;2022-11-15T09:28:26;2.70;;;2.47;;
73733;SDS011;62039;50.000;9.064;2022-11-15T09:30:55;3.63;;;2.57;;
73733;SDS011;62039;50.000;9.064;2022-11-15T09:33:22;3.13;;;2.47;;
73733;SDS011;62039;50.000;9.064;2022-11-15T09:35:52;2.47;;;2.27;;
73733;SDS011;62039;50.000;9.064;2022-11-15T09:38:19;3.93;;;2.50;;
73733;SDS011;62039;50.000;9.064;2022-11-15T09:40:46;2.83;;;2.20;;
73733;SDS011;62039;50.000;9.064;2022-11-15T09:43:29;3.63;;;2.93;;
73733;SDS011;62039;50.000;9.064;2022-11-15T09:46:08;2.80;;;2.17;;
73733;SDS011;62039;50.000;9.064;2022-11-15T09:48:45;2.87;;;2.43;;
73733;SDS011;62039;50.000;9.064;2022-11-15T09:51:21;2.37;;;2.10;;
73733;SDS011;62039;50.000;9.064;2022-11-15T09:53:56;2.40;;;2.07;;
73733;SDS011;62039;50.000;9.064;2022-11-15T09:56:46;2.33;;;1.93;;
73733;SDS011;62039;50.000;9.064;2022-11-15T09:59:18;2.07;;;1.87;;
73733;SDS011;62039;50.000;9.064;2022-11-15T10:01:55;2.70;;;2.00;;
73733;SDS011;62039;50.000;9.064;2022-11-15T10:04:26;2.50;;;2.27;;
73733;SDS011;62039;50.000;9.064;2022-11-15T10:06:55;3.30;;;2.17;;
73733;SDS011;62039;50.000;9.064;2022-11-15T10:09:28;3.67;;;2.50;;
73733;SDS011;62039;50.000;9.064;2022-11-15T10:12:00;3.10;;;2.80;;
73733;SDS011;62039;50.000;9.064;2022-11-15T10:14:28;3.53;;;2.67;;
73733;SDS011;62039;50.000;9.064;2022-11-15T10:17:05;2.67;;;2.40;;
73733;SDS011;62039;50.000;9.064;2022-11-15T10:19:43;2.57;;;2.00;;
73733;SDS011;62039;50.000;9.064;2022-11-15T10:25:10;3.43;;;2.13;;
73733;SDS011;62039;50.000;9.064;2022-11-15T10:27:42;2.80;;;1.83;;
73733;SDS011;62039;50.000;9.064;2022-11-15T10:30:14;2.50;;;2.30;;
73733;SDS011;62039;50.000;9.064;2022-11-15T10:32:42;2.30;;;1.90;;
73733;SDS011;62039;50.000;9.064;2022-11-15T10:35:17;2.30;;;1.90;;
73733;SDS011;62039;50.000;9.064;2022-11-15T10:37:46;3.17;;;2.10;;
73733;SDS011;62039;50.000;9.064;2022-11-15T10:40:18;2.27;;;2.00;;
73733;SDS011;62039;50.000;9.064;2022-11-15T10:42:47;2.70;;;1.80;;
73733;SDS011;62039;50.000;9.064;2022-11-15T10:45:29;2.63;;;2.10;;
73733;SDS011;62039;50.000;9.064;2022-11-15T10:48:19;3.27;;;2.00;;
73733;SDS011;62039;50.000;9.064;2022-11-15T10:50:50;2.00;;;1.67;;
73733;SDS011;62039;50.000;9.064;2022-11-15T10:53:21;2.03;;;1.70;;
73733;SDS011;62039;50.000;9.064;2022-11-15T10:55:51;2.83;;;2.07;;
73733;SDS011;62039;50.000;9.064;2022-11-15T10:58:22;2.67;;;2.17;;
73733;SDS011;62039;50.000;9.064;2022-11-15T11:01:09;2.37;;;1.63;;
73733;SDS011;62039;50.000;9.064;2022-11-15T11:03:39;2.47;;;2.10;;
73733;SDS011;62039;50.000;9.064;2022-11-15T11:06:08;2.70;;;2.10;;
73733;SDS011;62039;50.000;9.064;2022-11-15T11:08:36;2.27;;;2.00;;
73733;SDS011;62039;50.000;9.064;2022-11-15T11:11:03;2.20;;;2.00;;
73733;SDS011;62039;50.000;9.064;2022-11-15T11:13:32;2.30;;;1.80;;
73733;SDS011;62039;50.000;9.064;2022-11-15T11:16:04;2.10;;;1.60;;
73733;SDS011;62039;50.000;9.064;2022-11-15T11:18:44;2.40;;;1.67;;
73733;SDS011;62039;50.000;9.064;2022-11-15T11:21:19;2.23;;;1.70;;
73733;SDS011;62039;50.000;9.064;2022-11-15T11:24:03;2.83;;;1.70;;
73733;SDS011;62039;50.000;9.064;2022-11-15T11:26:35;1.87;;;1.60;;
73733;SDS011;62039;50.000;9.064;2022-11-15T11:29:12;3.00;;;1.80;;
73733;SDS011;62039;50.000;9.064;2022-11-15T11:31:55;2.37;;;1.37;;
73733;SDS011;62039;50.000;9.064;2022-11-15T11:34:31;2.03;;;1.70;;
73733;SDS011;62039;50.000;9.064;2022-11-15T11:37:09;1.90;;;1.70;;
73733;SDS011;62039;50.000;9.064;2022-11-15T11:39:42;2.47;;;1.80;;
73733;SDS011;62039;50.000;9.064;2022-11-15T11:42:23;1.57;;;1.47;;
73733;SDS011;62039;50.000;9.064;2022-11-15T11:44:57;3.07;;;1.47;;
73733;SDS011;62039;50.000;9.064;2022-11-15T11:47:35;2.17;;;1.80;;
73733;SDS011;62039;50.000;9.064;2022-11-15T11:50:10;1.50;;;1.40;;
73733;SDS011;62039;50.000;9.064;2022-11-15T11:52:41;1.93;;;1.30;;
73733;SDS011;62039;50.000;9.064;2022-11-15T11:55:12;2.47;;;1.57;;
73733;SDS011;62039;50.000;9.064;2022-11-15T11:57:43;1.57;;;1.47;;
73733;SDS011;62039;50.000;9.064;2022-11-15T12:00:16;3.43;;;1.70;;
73733;SDS011;62039;50.000;9.064;2022-11-15T12:02:47;1.47;;;1.30;;
73733;SDS011;62039;50.000;9.064;2022-11-15T12:05:22;1.80;;;1.60;;
73733;SDS011;62039;50.000;9.064;2022-11-15T12:07:53;2.73;;;1.70;;
73733;SDS011;62039;50.000;9.064;2022-11-15T12:10:29;3.00;;;2.17;;
73733;SDS011;62039;50.000;9.064;2022-11-15T12:12:58;2.10;;;1.90;;
73733;SDS011;62039;50.000;9.064;2022-11-15T12:15:31;1.80;;;1.50;;
73733;SDS011;62039;50.000;9.064;2022-11-15T12:18:04;2.97;;;1.83;;
73733;SDS011;62039;50.000;9.064;2022-11-15T12:20:33;2.43;;;2.03;;
73733;SDS011;62039;50.000;9.064;2022-11-15T12:23:04;3.77;;;2.90;;
73733;SDS011;62039;50.000;9.064;2022-11-15T12:25:44;3.37;;;2.83;;
73733;SDS011;62039;50.000;9.064;2022-11-15T12:28:16;2.70;;;2.27;;
73733;SDS011;62039;50.000;9.064;2022-11-15T12:30:50;2.10;;;1.90;;
73733;SDS011;62039;50.000;9.064;2022-11-15T12:33:33;3.00;;;1.80;;
73733;SDS011;62039;50.000;9.064;2022-11-15T12:36:02;3.47;;;2.23;;
73733;SDS011;62039;50.000;9.064;2022-11-15T12:41:18;2.07;;;1.87;;
73733;SDS011;62039;50.000;9.064;2022-11-15T12:43:46;3.07;;;1.77;;
73733;SDS011;62039;50.000;9.064;2022-11-15T12:46:19;2.23;;;1.70;;
73733;SDS011;62039;50.000;9.064;2022-11-15T12:48:50;3.23;;;2.80;;
73733;SDS011;62039;50.000;9.064;2022-11-15T12:51:22;3.77;;;2.67;;
73733;SDS011;62039;50.000;9.064;2022-11-15T12:57:32;1.97;;;1.70;;
73733;SDS011;62039;50.000;9.064;2022-11-15T13:00:05;2.07;;;1.50;;
73733;SDS011;62039;50.000;9.064;2022-11-15T13:03:16;2.03;;;1.83;;
73733;SDS011;62039;50.000;9.064;2022-11-15T13:05:53;2.00;;;1.60;;
73733;SDS011;62039;50.000;9.064;2022-11-15T13:17:22;2.20;;;1.90;;
73733;SDS011;62039;50.000;9.064;2022-11-15T13:19:55;3.47;;;2.77;;
73733;SDS011;62039;50.000;9.064;2022-11-15T13:22:25;4.47;;;3.30;;
73733;SDS011;62039;50.000;9.064;2022-11-15T13:24:52;4.00;;;3.20;;
73733;SDS011;62039;50.000;9.064;2022-11-15T13:27:20;2.60;;;2.30;;
73733;SDS011;62039;50.000;9.064;2022-11-15T13:29:46;2.00;;;1.73;;
73733;SDS011;62039;50.000;9.064;2022-11-15T13:32:13;4.23;;;3.30;;
73733;SDS011;62039;50.000;9.064;2022-11-15T13:34:42;2.77;;;2.20;;
73733;SDS011;62039;50.000;9.064;2022-11-15T13:37:28;2.50;;;1.97;;
73733;SDS011;62039;50.000;9.064;2022-11-15T13:39:57;4.60;;;1.50;;
73733;SDS011;62039;50.000;9.064;2022-11-15T13:42:43;3.13;;;1.93;;
73733;SDS011;62039;50.000;9.064;2022-11-15T13:45:12;2.83;;;1.80;;
73733;SDS011;62039;50.000;9.064;2022-11-15T13:47:41;4.17;;;1.93;;
73733;SDS011;62039;50.000;9.064;2022-11-15T13:50:10;3.97;;;2.30;;
73733;SDS011;62039;50.000;9.064;2022-11-15T13:52:38;3.00;;;2.13;;
73733;SDS011;62039;50.000;9.064;2022-11-15T13:55:09;2.60;;;2.27;;
73733;SDS011;62039;50.000;9.064;2022-11-15T13:57:39;2.97;;;2.07;;
73733;SDS011;62039;50.000;9.064;2022-11-15T14:00:24;2.00;;;1.80;;
73733;SDS011;62039;50.000;9.064;2022-11-15T14:02:53;2.00;;;1.77;;
73733;SDS011;62039;50.000;9.064;2022-11-15T14:05:21;2.63;;;2.30;;
73733;SDS011;62039;50.000;9.064;2022-11-15T14:07:52;2.10;;;1.90;;
73733;SDS011;62039;50.000;9.064;2022-11-15T14:10:25;1.97;;;1.70;;
73733;SDS011;62039;50.000;9.064;2022-11-15T14:12:55;2.53;;;1.80;;
73733;SDS011;62039;50.000;9.064;2022-11-15T14:15:27;2.03;;;1.63;;
73733;SDS011;62039;50.000;9.064;2022-11-15T14:17:56;2.17;;;1.63;;
73733;SDS011;62039;50.000;9.064;2022-11-15T14:20:30;1.87;;;1.60;;
73733;SDS011;62039;50.000;9.064;2022-11-15T14:22:58;1.90;;;1.77;;
73733;SDS011;62039;50.000;9.064;2022-11-15T14:25:26;2.00;;;1.73;;
73733;SDS011;62039;50.000;9.064;2022-11-15T14:28:15;2.53;;;1.97;;
73733;SDS011;62039;50.000;9.064;2022-11-15T14:30:55;9.07;;;2.17;;
73733;SDS011;62039;50.000;9.064;2022-11-15T14:33:24;2.27;;;1.87;;
73733;SDS011;62039;50.000;9.064;2022-11-15T14:35:54;2.23;;;2.03;;
73733;SDS011;62039;50.000;9.064;2022-11-15T14:38:22;3.50;;;2.70;;
73733;SDS011;62039;50.000;9.064;2022-11-15T14:40:49;4.57;;;3.27;;
73733;SDS011;62039;50.000;9.064;2022-11-15T14:43:17;4.27;;;3.30;;
73733;SDS011;62039;50.000;9.064;2022-11-15T14:45:43;4.30;;;3.60;;
73733;SDS011;62039;50.000;9.064;2022-11-15T14:48:10;4.03;;;3.47;;
73733;SDS011;62039;50.000;9.064;2022-11-15T14:50:37;3.83;;;3.27;;
73733;SDS011;62039;50.000;9.064;2022-11-15T14:53:04;3.20;;;2.60;;
73733;SDS011;62039;50.000;9.064;2022-11-15T14:55:31;3.30;;;2.80;;
73733;SDS011;62039;50.000;9.064;2022-11-15T14:57:59;5.07;;;2.83;;
73733;SDS011;62039;50.000;9.064;2022-11-15T15:00:27;3.40;;;3.10;;
73733;SDS011;62039;50.000;9.064;2022-11-15T15:03:00;7.63;;;4.00;;
73733;SDS011;62039;50.000;9.064;2022-11-15T15:05:30;6.47;;;4.73;;
73733;SDS011;62039;50.000;9.064;2022-11-15T15:07:58;3.77;;;3.13;;
73733;SDS011;62039;50.000;9.064;2022-11-15T15:10:26;2.40;;;2.20;;
73733;SDS011;62039;50.000;9.064;2022-11-15T15:13:08;2.13;;;1.93;;
73733;SDS011;62039;50.000;9.064;2022-11-15T15:15:42;2.20;;;1.80;;
73733;SDS011;62039;50.000;9.064;2022-11-15T15:18:08;2.40;;;1.70;;
73733;SDS011;62039;50.000;9.064;2022-11-15T15:20:35;1.73;;;1.60;;
73733;SDS011;62039;50.000;9.064;2022-11-15T15:23:04;2.17;;;1.50;;
73733;SDS011;62039;50.000;9.064;2022-11-15T15:25:33;1.70;;;1.60;;
73733;SDS011;62039;50.000;9.064;2022-11-15T15:28:01;1.93;;;1.53;;